sensor_id;sensor_type;location;lat;lon;timestamp;P1;durP1;ratioP1;P2;durP2;ratioP2
76228;SDS011;65021;53.174;18.160;2023-08-12T00:01:32;8.70;;;2.70;;
76228;SDS011;65021;53.174;18.160;2023-08-12T00:03:58;8.40;;;3.20;;
76228;SDS011;65021;53.174;18.160;2023-08-12T00:06:25;5.90;;;2.90;;
76228;SDS011;65021;53.174;18.160;2023-08-12T00:08:52;8.20;;;2.90;;
76228;SDS011;65021;53.174;18.160;2023-08-12T00:11:18;7.50;;;2.60;;
76228;SDS011;65021;53.174;18.160;2023-08-12T00:13:45;5.30;;;2.60;;
76228;SDS011;65021;53.174;18.160;2023-08-12T00:16:11;6.00;;;2.90;;
76228;SDS011;65021;53.174;18.160;2023-08-12T00:18:38;5.80;;;2.60;;
76228;SDS011;65021;53.174;18.160;2023-08-12T00:21:07;7.00;;;3.30;;
76228;SDS011;65021;53.174;18.160;2023-08-12T00:23:39;5.10;;;2.40;;
76228;SDS011;65021;53.174;18.160;2023-08-12T00:26:07;9.30;;;3.20;;
76228;SDS011;65021;53.174;18.160;2023-08-12T00:28:34;8.10;;;2.70;;
76228;SDS011;65021;53.174;18.160;2023-08-12T00:31:01;5.30;;;2.60;;
76228;SDS011;65021;53.174;18.160;2023-08-12T00:33:27;6.80;;;3.20;;
76228;SDS011;65021;53.174;18.160;2023-08-12T00:35:54;8.90;;;3.10;;
76228;SDS011;65021;53.174;18.160;2023-08-12T00:38:21;6.70;;;2.50;;
76228;SDS011;65021;53.174;18.160;2023-08-12T00:40:47;7.20;;;3.30;;
76228;SDS011;65021;53.174;18.160;2023-08-12T00:43:14;7.90;;;3.90;;
76228;SDS011;65021;53.174;18.160;2023-08-12T00:45:41;9.60;;;3.60;;
76228;SDS011;65021;53.174;18.160;2023-08-12T00:48:08;6.20;;;3.30;;
76228;SDS011;65021;53.174;18.160;2023-08-12T00:50:36;6.90;;;3.10;;
76228;SDS011;65021;53.174;18.160;2023-08-12T00:53:04;6.80;;;3.10;;
76228;SDS011;65021;53.174;18.160;2023-08-12T00:55:33;6.50;;;3.10;;
76228;SDS011;65021;53.174;18.160;2023-08-12T00:58:00;7.10;;;3.10;;
76228;SDS011;65021;53.174;18.160;2023-08-12T01:00:28;5.30;;;3.00;;
76228;SDS011;65021;53.174;18.160;2023-08-12T01:02:55;5.80;;;2.60;;
76228;SDS011;65021;53.174;18.160;2023-08-12T01:05:23;7.60;;;3.80;;
76228;SDS011;65021;53.174;18.160;2023-08-12T01:07:50;5.80;;;2.60;;
76228;SDS011;65021;53.174;18.160;2023-08-12T01:10:20;6.90;;;3.50;;
76228;SDS011;65021;53.174;18.160;2023-08-12T01:12:50;6.80;;;2.90;;
76228;SDS011;65021;53.174;18.160;2023-08-12T01:15:23;6.90;;;3.00;;
76228;SDS011;65021;53.174;18.160;2023-08-12T01:17:53;5.10;;;2.70;;
76228;SDS011;65021;53.174;18.160;2023-08-12T01:20:21;7.00;;;3.10;;
76228;SDS011;65021;53.174;18.160;2023-08-12T01:22:56;6.10;;;2.90;;
76228;SDS011;65021;53.174;18.160;2023-08-12T01:25:24;6.70;;;3.20;;
76228;SDS011;65021;53.174;18.160;2023-08-12T01:27:51;6.30;;;3.10;;
76228;SDS011;65021;53.174;18.160;2023-08-12T01:30:18;8.10;;;3.20;;
76228;SDS011;65021;53.174;18.160;2023-08-12T01:35:43;6.30;;;3.20;;
76228;SDS011;65021;53.174;18.160;2023-08-12T01:38:12;7.60;;;3.10;;
76228;SDS011;65021;53.174;18.160;2023-08-12T01:40:39;4.90;;;2.60;;
76228;SDS011;65021;53.174;18.160;2023-08-12T01:43:06;7.10;;;2.90;;
76228;SDS011;65021;53.174;18.160;2023-08-12T01:45:34;5.90;;;3.40;;
76228;SDS011;65021;53.174;18.160;2023-08-12T01:48:01;7.10;;;2.90;;
76228;SDS011;65021;53.174;18.160;2023-08-12T01:50:29;5.90;;;2.50;;
76228;SDS011;65021;53.174;18.160;2023-08-12T01:52:55;8.60;;;3.40;;
76228;SDS011;65021;53.174;18.160;2023-08-12T01:55:22;9.00;;;3.50;;
76228;SDS011;65021;53.174;18.160;2023-08-12T01:57:49;6.10;;;3.00;;
76228;SDS011;65021;53.174;18.160;2023-08-12T02:00:15;6.80;;;3.30;;
76228;SDS011;65021;53.174;18.160;2023-08-12T02:02:42;5.20;;;2.90;;
76228;SDS011;65021;53.174;18.160;2023-08-12T02:05:12;5.70;;;2.60;;
76228;SDS011;65021;53.174;18.160;2023-08-12T02:07:39;6.00;;;3.20;;
76228;SDS011;65021;53.174;18.160;2023-08-12T02:10:06;4.90;;;2.70;;
76228;SDS011;65021;53.174;18.160;2023-08-12T02:12:33;6.80;;;3.10;;
76228;SDS011;65021;53.174;18.160;2023-08-12T02:14:59;6.50;;;3.30;;
76228;SDS011;65021;53.174;18.160;2023-08-12T02:17:26;7.20;;;3.00;;
76228;SDS011;65021;53.174;18.160;2023-08-12T02:19:52;6.80;;;3.30;;
76228;SDS011;65021;53.174;18.160;2023-08-12T02:22:19;6.40;;;3.50;;
76228;SDS011;65021;53.174;18.160;2023-08-12T02:24:46;6.80;;;3.30;;
76228;SDS011;65021;53.174;18.160;2023-08-12T02:27:12;6.20;;;2.90;;
76228;SDS011;65021;53.174;18.160;2023-08-12T02:29:39;7.40;;;3.70;;
76228;SDS011;65021;53.174;18.160;2023-08-12T02:32:05;8.90;;;3.60;;
76228;SDS011;65021;53.174;18.160;2023-08-12T02:34:32;7.30;;;2.70;;
76228;SDS011;65021;53.174;18.160;2023-08-12T02:36:58;9.10;;;4.00;;
76228;SDS011;65021;53.174;18.160;2023-08-12T02:39:25;6.70;;;3.20;;
76228;SDS011;65021;53.174;18.160;2023-08-12T02:41:51;7.50;;;3.60;;
76228;SDS011;65021;53.174;18.160;2023-08-12T02:44:19;5.90;;;3.40;;
76228;SDS011;65021;53.174;18.160;2023-08-12T02:46:45;6.40;;;3.40;;
76228;SDS011;65021;53.174;18.160;2023-08-12T02:49:12;8.30;;;2.90;;
76228;SDS011;65021;53.174;18.160;2023-08-12T02:51:38;6.30;;;3.50;;
76228;SDS011;65021;53.174;18.160;2023-08-12T02:54:05;6.50;;;3.30;;
76228;SDS011;65021;53.174;18.160;2023-08-12T02:56:32;7.60;;;3.50;;
76228;SDS011;65021;53.174;18.160;2023-08-12T02:58:58;7.40;;;4.30;;
76228;SDS011;65021;53.174;18.160;2023-08-12T03:01:25;7.90;;;3.40;;
76228;SDS011;65021;53.174;18.160;2023-08-12T03:03:51;7.00;;;3.70;;
76228;SDS011;65021;53.174;18.160;2023-08-12T03:06:18;11.50;;;4.40;;
76228;SDS011;65021;53.174;18.160;2023-08-12T03:08:44;8.60;;;3.60;;
76228;SDS011;65021;53.174;18.160;2023-08-12T03:11:11;7.50;;;3.70;;
76228;SDS011;65021;53.174;18.160;2023-08-12T03:13:38;6.00;;;3.10;;
76228;SDS011;65021;53.174;18.160;2023-08-12T03:16:04;9.10;;;3.70;;
76228;SDS011;65021;53.174;18.160;2023-08-12T03:18:31;9.30;;;3.80;;
76228;SDS011;65021;53.174;18.160;2023-08-12T03:20:57;7.80;;;3.30;;
76228;SDS011;65021;53.174;18.160;2023-08-12T03:23:24;6.20;;;3.40;;
76228;SDS011;65021;53.174;18.160;2023-08-12T03:25:50;6.60;;;3.50;;
76228;SDS011;65021;53.174;18.160;2023-08-12T03:28:17;7.50;;;3.40;;
76228;SDS011;65021;53.174;18.160;2023-08-12T03:30:49;7.20;;;4.30;;
76228;SDS011;65021;53.174;18.160;2023-08-12T03:33:17;9.10;;;4.00;;
76228;SDS011;65021;53.174;18.160;2023-08-12T03:35:44;7.80;;;3.90;;
76228;SDS011;65021;53.174;18.160;2023-08-12T03:38:12;9.30;;;3.80;;
76228;SDS011;65021;53.174;18.160;2023-08-12T03:40:39;9.20;;;4.10;;
76228;SDS011;65021;53.174;18.160;2023-08-12T03:43:06;6.60;;;3.40;;
76228;SDS011;65021;53.174;18.160;2023-08-12T03:45:39;7.20;;;4.00;;
76228;SDS011;65021;53.174;18.160;2023-08-12T03:48:06;8.80;;;3.90;;
76228;SDS011;65021;53.174;18.160;2023-08-12T03:50:34;7.30;;;3.50;;
76228;SDS011;65021;53.174;18.160;2023-08-12T03:53:01;7.30;;;3.40;;
76228;SDS011;65021;53.174;18.160;2023-08-12T03:55:30;6.80;;;3.90;;
76228;SDS011;65021;53.174;18.160;2023-08-12T03:57:58;9.00;;;4.00;;
76228;SDS011;65021;53.174;18.160;2023-08-12T04:00:25;7.50;;;3.70;;
76228;SDS011;65021;53.174;18.160;2023-08-12T04:02:52;6.50;;;3.50;;
76228;SDS011;65021;53.174;18.160;2023-08-12T04:05:19;8.00;;;3.40;;
76228;SDS011;65021;53.174;18.160;2023-08-12T04:07:45;7.70;;;3.80;;
76228;SDS011;65021;53.174;18.160;2023-08-12T04:10:12;7.00;;;2.80;;
76228;SDS011;65021;53.174;18.160;2023-08-12T04:12:40;8.20;;;3.30;;
76228;SDS011;65021;53.174;18.160;2023-08-12T04:15:08;6.40;;;3.30;;
76228;SDS011;65021;53.174;18.160;2023-08-12T04:17:35;5.20;;;2.70;;
76228;SDS011;65021;53.174;18.160;2023-08-12T04:20:02;6.40;;;3.50;;
76228;SDS011;65021;53.174;18.160;2023-08-12T04:22:32;6.50;;;3.20;;
76228;SDS011;65021;53.174;18.160;2023-08-12T04:24:58;6.50;;;3.20;;
76228;SDS011;65021;53.174;18.160;2023-08-12T04:27:25;5.20;;;3.00;;
76228;SDS011;65021;53.174;18.160;2023-08-12T04:29:51;5.80;;;3.30;;
76228;SDS011;65021;53.174;18.160;2023-08-12T04:32:18;6.40;;;2.70;;
76228;SDS011;65021;53.174;18.160;2023-08-12T04:34:45;6.80;;;2.80;;
76228;SDS011;65021;53.174;18.160;2023-08-12T04:37:12;6.80;;;3.40;;
76228;SDS011;65021;53.174;18.160;2023-08-12T04:39:39;10.20;;;2.80;;
76228;SDS011;65021;53.174;18.160;2023-08-12T04:42:06;7.20;;;3.00;;
76228;SDS011;65021;53.174;18.160;2023-08-12T04:44:32;6.80;;;3.40;;
76228;SDS011;65021;53.174;18.160;2023-08-12T04:46:59;6.80;;;3.30;;
76228;SDS011;65021;53.174;18.160;2023-08-12T04:49:26;7.10;;;2.90;;
76228;SDS011;65021;53.174;18.160;2023-08-12T04:51:53;5.00;;;2.80;;
76228;SDS011;65021;53.174;18.160;2023-08-12T04:54:19;6.80;;;3.20;;
76228;SDS011;65021;53.174;18.160;2023-08-12T04:56:46;10.30;;;3.90;;
76228;SDS011;65021;53.174;18.160;2023-08-12T04:59:12;6.70;;;3.30;;
76228;SDS011;65021;53.174;18.160;2023-08-12T05:01:39;5.70;;;2.90;;
76228;SDS011;65021;53.174;18.160;2023-08-12T05:04:05;7.50;;;3.50;;
76228;SDS011;65021;53.174;18.160;2023-08-12T05:06:32;6.00;;;3.10;;
76228;SDS011;65021;53.174;18.160;2023-08-12T05:08:58;6.30;;;3.20;;
76228;SDS011;65021;53.174;18.160;2023-08-12T05:11:25;4.80;;;2.90;;
76228;SDS011;65021;53.174;18.160;2023-08-12T05:13:52;6.70;;;3.10;;
76228;SDS011;65021;53.174;18.160;2023-08-12T05:16:18;7.90;;;4.00;;
76228;SDS011;65021;53.174;18.160;2023-08-12T05:18:45;8.50;;;4.40;;
76228;SDS011;65021;53.174;18.160;2023-08-12T05:21:11;8.80;;;4.40;;
76228;SDS011;65021;53.174;18.160;2023-08-12T05:23:38;8.50;;;3.90;;
76228;SDS011;65021;53.174;18.160;2023-08-12T05:26:04;8.30;;;4.10;;
76228;SDS011;65021;53.174;18.160;2023-08-12T05:28:31;10.90;;;4.00;;
76228;SDS011;65021;53.174;18.160;2023-08-12T05:30:57;9.20;;;4.30;;
76228;SDS011;65021;53.174;18.160;2023-08-12T05:33:24;7.90;;;4.60;;
76228;SDS011;65021;53.174;18.160;2023-08-12T05:35:50;8.10;;;4.10;;
76228;SDS011;65021;53.174;18.160;2023-08-12T05:38:17;10.50;;;4.90;;
76228;SDS011;65021;53.174;18.160;2023-08-12T05:40:43;11.30;;;4.10;;
76228;SDS011;65021;53.174;18.160;2023-08-12T05:43:10;10.80;;;4.60;;
76228;SDS011;65021;53.174;18.160;2023-08-12T05:45:36;8.80;;;4.00;;
76228;SDS011;65021;53.174;18.160;2023-08-12T05:48:03;9.70;;;4.10;;
76228;SDS011;65021;53.174;18.160;2023-08-12T05:50:30;9.20;;;4.50;;
76228;SDS011;65021;53.174;18.160;2023-08-12T05:52:56;10.20;;;5.00;;
76228;SDS011;65021;53.174;18.160;2023-08-12T05:55:23;8.30;;;4.90;;
76228;SDS011;65021;53.174;18.160;2023-08-12T05:57:49;9.10;;;4.60;;
76228;SDS011;65021;53.174;18.160;2023-08-12T06:00:16;8.70;;;5.10;;
76228;SDS011;65021;53.174;18.160;2023-08-12T06:02:42;9.60;;;4.50;;
76228;SDS011;65021;53.174;18.160;2023-08-12T06:05:09;11.60;;;5.50;;
76228;SDS011;65021;53.174;18.160;2023-08-12T06:07:35;7.60;;;4.30;;
76228;SDS011;65021;53.174;18.160;2023-08-12T06:10:02;10.10;;;4.80;;
76228;SDS011;65021;53.174;18.160;2023-08-12T06:12:29;13.50;;;5.30;;
76228;SDS011;65021;53.174;18.160;2023-08-12T06:14:56;14.60;;;5.80;;
76228;SDS011;65021;53.174;18.160;2023-08-12T06:17:22;9.70;;;5.50;;
76228;SDS011;65021;53.174;18.160;2023-08-12T06:19:49;10.70;;;6.00;;
76228;SDS011;65021;53.174;18.160;2023-08-12T06:22:16;13.90;;;5.90;;
76228;SDS011;65021;53.174;18.160;2023-08-12T06:24:42;11.60;;;5.50;;
76228;SDS011;65021;53.174;18.160;2023-08-12T06:27:09;9.20;;;5.10;;
76228;SDS011;65021;53.174;18.160;2023-08-12T06:29:35;13.10;;;5.40;;
76228;SDS011;65021;53.174;18.160;2023-08-12T06:32:02;9.40;;;5.30;;
76228;SDS011;65021;53.174;18.160;2023-08-12T06:34:28;8.90;;;4.80;;
76228;SDS011;65021;53.174;18.160;2023-08-12T06:36:55;8.30;;;4.30;;
76228;SDS011;65021;53.174;18.160;2023-08-12T06:39:22;10.10;;;4.40;;
76228;SDS011;65021;53.174;18.160;2023-08-12T06:41:48;8.40;;;3.80;;
76228;SDS011;65021;53.174;18.160;2023-08-12T06:44:17;10.60;;;3.30;;
76228;SDS011;65021;53.174;18.160;2023-08-12T06:46:44;9.40;;;3.80;;
76228;SDS011;65021;53.174;18.160;2023-08-12T06:49:11;6.60;;;3.30;;
76228;SDS011;65021;53.174;18.160;2023-08-12T06:51:38;7.20;;;3.30;;
76228;SDS011;65021;53.174;18.160;2023-08-12T06:54:05;6.20;;;3.20;;
76228;SDS011;65021;53.174;18.160;2023-08-12T06:56:32;7.60;;;3.20;;
76228;SDS011;65021;53.174;18.160;2023-08-12T06:58:59;8.60;;;3.30;;
76228;SDS011;65021;53.174;18.160;2023-08-12T07:01:26;6.20;;;2.90;;
76228;SDS011;65021;53.174;18.160;2023-08-12T07:03:56;7.30;;;3.60;;
76228;SDS011;65021;53.174;18.160;2023-08-12T07:06:25;8.00;;;3.20;;
76228;SDS011;65021;53.174;18.160;2023-08-12T07:08:53;5.90;;;2.50;;
76228;SDS011;65021;53.174;18.160;2023-08-12T07:11:20;6.60;;;2.90;;
76228;SDS011;65021;53.174;18.160;2023-08-12T07:13:49;6.60;;;2.90;;
76228;SDS011;65021;53.174;18.160;2023-08-12T07:16:17;5.20;;;2.60;;
76228;SDS011;65021;53.174;18.160;2023-08-12T07:18:45;6.00;;;2.50;;
76228;SDS011;65021;53.174;18.160;2023-08-12T07:21:12;6.30;;;2.70;;
76228;SDS011;65021;53.174;18.160;2023-08-12T07:23:39;7.00;;;2.70;;
76228;SDS011;65021;53.174;18.160;2023-08-12T07:26:06;7.70;;;3.40;;
76228;SDS011;65021;53.174;18.160;2023-08-12T07:28:33;6.70;;;2.60;;
76228;SDS011;65021;53.174;18.160;2023-08-12T07:31:02;6.20;;;2.30;;
76228;SDS011;65021;53.174;18.160;2023-08-12T07:33:29;7.70;;;2.60;;
76228;SDS011;65021;53.174;18.160;2023-08-12T07:35:56;7.00;;;2.40;;
76228;SDS011;65021;53.174;18.160;2023-08-12T07:38:23;6.80;;;2.30;;
76228;SDS011;65021;53.174;18.160;2023-08-12T07:40:50;4.90;;;2.30;;
76228;SDS011;65021;53.174;18.160;2023-08-12T07:43:17;9.00;;;2.30;;
76228;SDS011;65021;53.174;18.160;2023-08-12T07:45:44;5.30;;;2.50;;
76228;SDS011;65021;53.174;18.160;2023-08-12T07:48:19;6.30;;;2.90;;
76228;SDS011;65021;53.174;18.160;2023-08-12T07:50:46;6.20;;;2.30;;
76228;SDS011;65021;53.174;18.160;2023-08-12T07:53:16;8.30;;;2.20;;
76228;SDS011;65021;53.174;18.160;2023-08-12T07:55:43;5.00;;;1.80;;
76228;SDS011;65021;53.174;18.160;2023-08-12T07:58:10;6.10;;;2.50;;
76228;SDS011;65021;53.174;18.160;2023-08-12T08:00:37;7.00;;;2.70;;
76228;SDS011;65021;53.174;18.160;2023-08-12T08:03:03;5.10;;;2.20;;
76228;SDS011;65021;53.174;18.160;2023-08-12T08:05:30;5.70;;;2.20;;
76228;SDS011;65021;53.174;18.160;2023-08-12T08:07:57;6.30;;;2.20;;
76228;SDS011;65021;53.174;18.160;2023-08-12T08:10:24;5.40;;;2.30;;
76228;SDS011;65021;53.174;18.160;2023-08-12T08:12:52;4.60;;;2.30;;
76228;SDS011;65021;53.174;18.160;2023-08-12T08:15:19;5.30;;;2.10;;
76228;SDS011;65021;53.174;18.160;2023-08-12T08:17:46;6.00;;;2.00;;
76228;SDS011;65021;53.174;18.160;2023-08-12T08:20:12;6.70;;;1.80;;
76228;SDS011;65021;53.174;18.160;2023-08-12T08:22:39;5.70;;;1.90;;
76228;SDS011;65021;53.174;18.160;2023-08-12T08:25:06;8.00;;;1.60;;
76228;SDS011;65021;53.174;18.160;2023-08-12T08:27:33;4.40;;;1.70;;
76228;SDS011;65021;53.174;18.160;2023-08-12T08:30:00;6.00;;;1.60;;
76228;SDS011;65021;53.174;18.160;2023-08-12T08:32:27;4.60;;;1.50;;
76228;SDS011;65021;53.174;18.160;2023-08-12T08:34:53;4.90;;;1.80;;
76228;SDS011;65021;53.174;18.160;2023-08-12T08:37:20;5.10;;;1.60;;
76228;SDS011;65021;53.174;18.160;2023-08-12T08:39:47;5.00;;;1.60;;
76228;SDS011;65021;53.174;18.160;2023-08-12T08:42:13;6.10;;;1.80;;
76228;SDS011;65021;53.174;18.160;2023-08-12T08:44:42;5.00;;;1.90;;
76228;SDS011;65021;53.174;18.160;2023-08-12T08:47:09;4.20;;;1.30;;
76228;SDS011;65021;53.174;18.160;2023-08-12T08:49:36;4.40;;;1.40;;
76228;SDS011;65021;53.174;18.160;2023-08-12T08:52:03;6.80;;;2.30;;
76228;SDS011;65021;53.174;18.160;2023-08-12T08:54:30;4.00;;;1.60;;
76228;SDS011;65021;53.174;18.160;2023-08-12T08:57:00;5.60;;;1.40;;
76228;SDS011;65021;53.174;18.160;2023-08-12T08:59:29;3.50;;;1.20;;
76228;SDS011;65021;53.174;18.160;2023-08-12T09:01:56;3.60;;;1.40;;
76228;SDS011;65021;53.174;18.160;2023-08-12T09:04:25;4.20;;;1.20;;
76228;SDS011;65021;53.174;18.160;2023-08-12T09:06:53;5.20;;;1.60;;
76228;SDS011;65021;53.174;18.160;2023-08-12T09:09:20;5.60;;;1.60;;
76228;SDS011;65021;53.174;18.160;2023-08-12T09:11:49;4.40;;;1.60;;
76228;SDS011;65021;53.174;18.160;2023-08-12T09:14:21;5.10;;;1.80;;
76228;SDS011;65021;53.174;18.160;2023-08-12T09:16:48;4.60;;;1.50;;
76228;SDS011;65021;53.174;18.160;2023-08-12T09:19:15;6.20;;;1.90;;
76228;SDS011;65021;53.174;18.160;2023-08-12T09:21:42;4.80;;;1.80;;
76228;SDS011;65021;53.174;18.160;2023-08-12T09:24:09;4.70;;;1.30;;
76228;SDS011;65021;53.174;18.160;2023-08-12T09:26:35;4.20;;;1.50;;
76228;SDS011;65021;53.174;18.160;2023-08-12T09:29:02;4.90;;;1.40;;
76228;SDS011;65021;53.174;18.160;2023-08-12T09:31:29;6.30;;;1.80;;
76228;SDS011;65021;53.174;18.160;2023-08-12T09:33:58;4.50;;;1.40;;
76228;SDS011;65021;53.174;18.160;2023-08-12T09:36:29;6.40;;;2.00;;
76228;SDS011;65021;53.174;18.160;2023-08-12T09:38:57;3.70;;;1.20;;
76228;SDS011;65021;53.174;18.160;2023-08-12T09:41:27;3.90;;;1.40;;
76228;SDS011;65021;53.174;18.160;2023-08-12T09:43:55;5.00;;;1.60;;
76228;SDS011;65021;53.174;18.160;2023-08-12T09:46:25;5.80;;;1.30;;
76228;SDS011;65021;53.174;18.160;2023-08-12T09:48:53;3.80;;;1.50;;
76228;SDS011;65021;53.174;18.160;2023-08-12T09:51:20;4.60;;;1.30;;
76228;SDS011;65021;53.174;18.160;2023-08-12T09:53:50;3.90;;;1.60;;
76228;SDS011;65021;53.174;18.160;2023-08-12T09:56:19;4.30;;;1.50;;
76228;SDS011;65021;53.174;18.160;2023-08-12T09:58:49;4.50;;;1.60;;
76228;SDS011;65021;53.174;18.160;2023-08-12T10:01:18;6.10;;;1.70;;
76228;SDS011;65021;53.174;18.160;2023-08-12T10:03:48;5.70;;;1.50;;
76228;SDS011;65021;53.174;18.160;2023-08-12T10:08:47;4.30;;;1.50;;
76228;SDS011;65021;53.174;18.160;2023-08-12T10:11:14;4.30;;;1.40;;
76228;SDS011;65021;53.174;18.160;2023-08-12T10:13:41;5.00;;;1.50;;
76228;SDS011;65021;53.174;18.160;2023-08-12T10:16:09;5.60;;;1.40;;
76228;SDS011;65021;53.174;18.160;2023-08-12T10:18:37;4.00;;;1.40;;
76228;SDS011;65021;53.174;18.160;2023-08-12T10:21:05;4.60;;;1.60;;
76228;SDS011;65021;53.174;18.160;2023-08-12T10:23:35;4.90;;;1.70;;
76228;SDS011;65021;53.174;18.160;2023-08-12T10:26:02;4.30;;;1.40;;
76228;SDS011;65021;53.174;18.160;2023-08-12T10:28:31;4.60;;;1.40;;
76228;SDS011;65021;53.174;18.160;2023-08-12T10:31:05;3.30;;;1.30;;
76228;SDS011;65021;53.174;18.160;2023-08-12T10:33:37;4.60;;;1.60;;
76228;SDS011;65021;53.174;18.160;2023-08-12T10:36:05;5.00;;;1.50;;
76228;SDS011;65021;53.174;18.160;2023-08-12T10:38:32;7.40;;;1.60;;
76228;SDS011;65021;53.174;18.160;2023-08-12T10:46:23;9.40;;;1.60;;
76228;SDS011;65021;53.174;18.160;2023-08-12T10:51:46;5.10;;;1.50;;
76228;SDS011;65021;53.174;18.160;2023-08-12T11:02:21;5.00;;;1.60;;
76228;SDS011;65021;53.174;18.160;2023-08-12T11:04:52;6.00;;;1.30;;
76228;SDS011;65021;53.174;18.160;2023-08-12T11:07:21;5.30;;;1.60;;
76228;SDS011;65021;53.174;18.160;2023-08-12T11:09:53;5.00;;;1.40;;
76228;SDS011;65021;53.174;18.160;2023-08-12T11:12:29;4.40;;;1.40;;
76228;SDS011;65021;53.174;18.160;2023-08-12T11:14:59;5.30;;;1.40;;
76228;SDS011;65021;53.174;18.160;2023-08-12T11:17:28;4.50;;;1.50;;
76228;SDS011;65021;53.174;18.160;2023-08-12T11:22:22;5.20;;;1.50;;
76228;SDS011;65021;53.174;18.160;2023-08-12T11:24:49;4.90;;;1.40;;
76228;SDS011;65021;53.174;18.160;2023-08-12T11:27:17;4.30;;;1.40;;
76228;SDS011;65021;53.174;18.160;2023-08-12T11:29:44;3.80;;;1.30;;
76228;SDS011;65021;53.174;18.160;2023-08-12T11:32:10;3.20;;;1.20;;
76228;SDS011;65021;53.174;18.160;2023-08-12T11:34:37;4.40;;;1.40;;
76228;SDS011;65021;53.174;18.160;2023-08-12T11:37:05;5.60;;;1.40;;
76228;SDS011;65021;53.174;18.160;2023-08-12T11:39:32;5.20;;;1.50;;
76228;SDS011;65021;53.174;18.160;2023-08-12T11:42:00;3.00;;;1.30;;
76228;SDS011;65021;53.174;18.160;2023-08-12T11:44:26;4.60;;;1.50;;
76228;SDS011;65021;53.174;18.160;2023-08-12T11:46:53;5.00;;;1.30;;
76228;SDS011;65021;53.174;18.160;2023-08-12T11:49:19;6.20;;;1.50;;
76228;SDS011;65021;53.174;18.160;2023-08-12T11:51:46;3.90;;;1.70;;
76228;SDS011;65021;53.174;18.160;2023-08-12T11:54:15;4.70;;;1.30;;
76228;SDS011;65021;53.174;18.160;2023-08-12T11:56:42;4.70;;;1.40;;
76228;SDS011;65021;53.174;18.160;2023-08-12T11:59:10;4.10;;;1.20;;
76228;SDS011;65021;53.174;18.160;2023-08-12T12:01:37;4.70;;;1.30;;
76228;SDS011;65021;53.174;18.160;2023-08-12T12:04:04;3.10;;;1.20;;
76228;SDS011;65021;53.174;18.160;2023-08-12T12:06:37;3.70;;;1.20;;
76228;SDS011;65021;53.174;18.160;2023-08-12T12:09:05;5.50;;;1.70;;
76228;SDS011;65021;53.174;18.160;2023-08-12T12:11:36;4.50;;;1.50;;
76228;SDS011;65021;53.174;18.160;2023-08-12T12:14:03;3.50;;;1.30;;
76228;SDS011;65021;53.174;18.160;2023-08-12T12:16:45;6.30;;;1.60;;
76228;SDS011;65021;53.174;18.160;2023-08-12T12:19:20;5.50;;;1.20;;
76228;SDS011;65021;53.174;18.160;2023-08-12T12:21:49;4.90;;;1.50;;
76228;SDS011;65021;53.174;18.160;2023-08-12T12:24:19;3.90;;;1.10;;
76228;SDS011;65021;53.174;18.160;2023-08-12T12:26:47;6.70;;;1.50;;
76228;SDS011;65021;53.174;18.160;2023-08-12T12:29:13;4.30;;;1.50;;
76228;SDS011;65021;53.174;18.160;2023-08-12T12:31:41;3.60;;;1.50;;
76228;SDS011;65021;53.174;18.160;2023-08-12T12:34:11;3.10;;;1.40;;
76228;SDS011;65021;53.174;18.160;2023-08-12T12:36:43;5.00;;;1.50;;
76228;SDS011;65021;53.174;18.160;2023-08-12T12:39:14;6.90;;;1.70;;
76228;SDS011;65021;53.174;18.160;2023-08-12T12:41:41;3.80;;;1.30;;
76228;SDS011;65021;53.174;18.160;2023-08-12T12:44:09;4.30;;;1.30;;
76228;SDS011;65021;53.174;18.160;2023-08-12T12:46:41;4.70;;;1.30;;
76228;SDS011;65021;53.174;18.160;2023-08-12T12:49:07;5.70;;;1.40;;
76228;SDS011;65021;53.174;18.160;2023-08-12T12:51:48;5.10;;;1.50;;
76228;SDS011;65021;53.174;18.160;2023-08-12T12:54:17;3.40;;;1.10;;
76228;SDS011;65021;53.174;18.160;2023-08-12T12:56:44;5.60;;;1.70;;
76228;SDS011;65021;53.174;18.160;2023-08-12T12:59:14;4.90;;;1.50;;
76228;SDS011;65021;53.174;18.160;2023-08-12T13:01:47;4.20;;;1.20;;
76228;SDS011;65021;53.174;18.160;2023-08-12T13:04:15;3.60;;;1.20;;
76228;SDS011;65021;53.174;18.160;2023-08-12T13:06:43;4.10;;;1.20;;
76228;SDS011;65021;53.174;18.160;2023-08-12T13:09:16;3.70;;;1.20;;
76228;SDS011;65021;53.174;18.160;2023-08-12T13:11:43;4.10;;;1.20;;
76228;SDS011;65021;53.174;18.160;2023-08-12T13:14:10;5.00;;;1.40;;
76228;SDS011;65021;53.174;18.160;2023-08-12T13:16:38;11.30;;;3.00;;
76228;SDS011;65021;53.174;18.160;2023-08-12T13:19:04;77.80;;;11.60;;
76228;SDS011;65021;53.174;18.160;2023-08-12T13:21:33;20.70;;;4.00;;
76228;SDS011;65021;53.174;18.160;2023-08-12T13:24:00;7.30;;;1.60;;
76228;SDS011;65021;53.174;18.160;2023-08-12T13:26:32;10.90;;;2.70;;
76228;SDS011;65021;53.174;18.160;2023-08-12T13:28:59;68.80;;;11.30;;
76228;SDS011;65021;53.174;18.160;2023-08-12T13:31:26;7.00;;;2.00;;
76228;SDS011;65021;53.174;18.160;2023-08-12T13:33:56;7.50;;;2.40;;
76228;SDS011;65021;53.174;18.160;2023-08-12T13:36:23;8.80;;;2.20;;
76228;SDS011;65021;53.174;18.160;2023-08-12T13:38:53;4.60;;;1.70;;
76228;SDS011;65021;53.174;18.160;2023-08-12T13:41:20;4.90;;;1.80;;
76228;SDS011;65021;53.174;18.160;2023-08-12T13:43:48;9.10;;;2.10;;
76228;SDS011;65021;53.174;18.160;2023-08-12T13:46:16;11.50;;;2.50;;
76228;SDS011;65021;53.174;18.160;2023-08-12T13:48:43;6.30;;;1.60;;
76228;SDS011;65021;53.174;18.160;2023-08-12T13:51:10;4.10;;;1.50;;
76228;SDS011;65021;53.174;18.160;2023-08-12T13:53:37;8.20;;;2.10;;
76228;SDS011;65021;53.174;18.160;2023-08-12T13:56:11;6.10;;;1.90;;
76228;SDS011;65021;53.174;18.160;2023-08-12T13:58:48;5.30;;;1.50;;
76228;SDS011;65021;53.174;18.160;2023-08-12T14:01:15;5.70;;;1.60;;
76228;SDS011;65021;53.174;18.160;2023-08-12T14:03:43;5.60;;;1.70;;
76228;SDS011;65021;53.174;18.160;2023-08-12T14:06:10;3.80;;;1.10;;
76228;SDS011;65021;53.174;18.160;2023-08-12T14:08:38;6.00;;;1.60;;
76228;SDS011;65021;53.174;18.160;2023-08-12T14:11:05;5.10;;;1.30;;
76228;SDS011;65021;53.174;18.160;2023-08-12T14:13:34;4.40;;;1.40;;
76228;SDS011;65021;53.174;18.160;2023-08-12T14:16:05;3.80;;;1.20;;
76228;SDS011;65021;53.174;18.160;2023-08-12T14:18:32;4.50;;;1.50;;
76228;SDS011;65021;53.174;18.160;2023-08-12T14:21:01;4.30;;;1.40;;
76228;SDS011;65021;53.174;18.160;2023-08-12T14:23:32;4.20;;;1.20;;
76228;SDS011;65021;53.174;18.160;2023-08-12T14:25:59;3.30;;;1.30;;
76228;SDS011;65021;53.174;18.160;2023-08-12T14:28:27;4.40;;;1.20;;
76228;SDS011;65021;53.174;18.160;2023-08-12T14:30:54;5.50;;;1.60;;
76228;SDS011;65021;53.174;18.160;2023-08-12T14:33:21;6.10;;;1.60;;
76228;SDS011;65021;53.174;18.160;2023-08-12T14:35:50;6.80;;;1.80;;
76228;SDS011;65021;53.174;18.160;2023-08-12T14:38:19;5.80;;;1.50;;
76228;SDS011;65021;53.174;18.160;2023-08-12T14:40:49;5.70;;;1.50;;
76228;SDS011;65021;53.174;18.160;2023-08-12T14:43:16;8.00;;;2.20;;
76228;SDS011;65021;53.174;18.160;2023-08-12T14:45:45;5.20;;;1.30;;
76228;SDS011;65021;53.174;18.160;2023-08-12T14:48:12;8.90;;;2.70;;
76228;SDS011;65021;53.174;18.160;2023-08-12T14:50:41;6.10;;;1.80;;
76228;SDS011;65021;53.174;18.160;2023-08-12T14:53:08;4.60;;;1.50;;
76228;SDS011;65021;53.174;18.160;2023-08-12T14:55:34;4.90;;;1.60;;
76228;SDS011;65021;53.174;18.160;2023-08-12T14:58:01;8.50;;;2.00;;
76228;SDS011;65021;53.174;18.160;2023-08-12T15:00:27;5.50;;;1.80;;